Time;durP1;ratioP1;P1;durP2;ratioP2;P2;SDS_P1;SDS_P2;PMS_P1;PMS_P2;Temp;Humidity;BMP_temperature;BMP_pressure;BME280_temperature;BME280_humidity;BME280_pressure;Samples;Min_cycle;Max_cycle;Signal;HPM_P1;HPM_P2
2023/12/01 00:01:23;;;;;;;1999.90;999.90;;;;;;;1.31;100.00;92970.19;5007934;28;20186;-59
2023/12/01 00:03:49;;;;;;;1999.90;999.90;;;;;;;1.29;100.00;92975.22;5008005;28;20202;-58
2023/12/01 00:06:14;;;;;;;1999.90;999.90;;;;;;;1.29;100.00;92972.53;5007661;28;20195;-60
2023/12/01 00:08:40;;;;;;;1999.90;999.90;;;;;;;1.34;100.00;92974.75;5007834;28;20172;-59
2023/12/01 00:11:05;;;;;;;1999.90;999.90;;;;;;;1.34;100.00;92969.38;5008137;28;20199;-58
2023/12/01 00:13:30;;;;;;;1999.90;999.90;;;;;;;1.35;100.00;92970.16;5008238;28;20215;-59
2023/12/01 00:15:56;;;;;;;1999.90;999.90;;;;;;;1.31;100.00;92975.56;5008028;28;20194;-59
2023/12/01 00:18:21;;;;;;;1999.90;999.90;;;;;;;1.30;100.00;92976.75;5007751;28;20194;-58
2023/12/01 00:20:46;;;;;;;1999.90;999.90;;;;;;;1.34;100.00;92980.13;5007751;28;20195;-59
2023/12/01 00:23:12;;;;;;;1999.90;999.90;;;;;;;1.37;100.00;92976.66;5007663;28;20218;-59
2023/12/01 00:25:37;;;;;;;1999.90;999.90;;;;;;;1.41;100.00;92980.06;5007713;28;20195;-59
2023/12/01 00:28:02;;;;;;;1999.90;999.90;;;;;;;1.42;100.00;92978.88;5007347;28;20191;-59
2023/12/01 00:30:29;;;;;;;1999.90;999.90;;;;;;;1.42;100.00;92976.19;5007687;28;20199;-59
2023/12/01 00:32:55;;;;;;;1999.90;999.90;;;;;;;1.44;100.00;92976.56;5007588;28;20186;-58
2023/12/01 00:35:21;;;;;;;1999.90;999.90;;;;;;;1.43;100.00;92972.34;5007837;28;20198;-59
2023/12/01 00:37:46;;;;;;;1999.90;999.90;;;;;;;1.47;100.00;92967.69;5007930;28;20194;-59
2023/12/01 00:40:12;;;;;;;1999.90;999.90;;;;;;;1.48;100.00;92982.66;5007235;28;20214;-59
2023/12/01 00:42:38;;;;;;;1999.90;999.90;;;;;;;1.47;100.00;92977.66;5007850;28;20203;-58
2023/12/01 00:45:03;;;;;;;1999.90;999.90;;;;;;;1.48;100.00;92974.59;5007336;28;20199;-58
2023/12/01 00:47:29;;;;;;;1999.90;999.90;;;;;;;1.50;100.00;92972.25;5010522;28;20248;-59
2023/12/01 00:49:54;;;;;;;1999.90;999.90;;;;;;;1.50;100.00;92974.94;5011359;28;20197;-59
2023/12/01 00:52:19;;;;;;;1999.90;999.90;;;;;;;1.47;100.00;92961.53;5011326;28;20195;-59
2023/12/01 00:54:45;;;;;;;1999.90;999.90;;;;;;;1.43;100.00;92972.34;5011323;28;20298;-59
2023/12/01 00:57:10;;;;;;;1999.90;999.90;;;;;;;1.43;100.00;92969.66;5011548;28;20254;-60
2023/12/01 00:59:35;;;;;;;1999.90;999.90;;;;;;;1.41;100.00;92963.91;5011041;28;20208;-58
2023/12/01 01:02:00;;;;;;;1999.90;999.90;;;;;;;1.42;100.00;92970.81;5011204;28;20191;-58
2023/12/01 01:04:26;;;;;;;1999.90;999.90;;;;;;;1.42;100.00;92964.69;5010847;28;20194;-59
2023/12/01 01:06:51;;;;;;;1999.90;999.90;;;;;;;1.42;100.00;92970.81;5010927;28;20210;-59
2023/12/01 01:09:16;;;;;;;1999.90;999.90;;;;;;;1.44;100.00;92968.50;5010688;28;20205;-59
2023/12/01 01:11:42;;;;;;;1999.90;999.90;;;;;;;1.47;100.00;92973.06;5010814;28;20185;-59
2023/12/01 01:14:07;;;;;;;1999.90;999.90;;;;;;;1.47;100.00;92978.44;5011143;28;20238;-59
2023/12/01 01:16:33;;;;;;;1999.90;999.90;;;;;;;1.43;100.00;92969.66;5011345;28;20206;-59
2023/12/01 01:18:58;;;;;;;1999.90;999.90;;;;;;;1.45;100.00;92964.63;5010714;28;20223;-60
2023/12/01 01:21:24;;;;;;;1999.90;999.90;;;;;;;1.45;100.00;92972.69;5010593;28;20199;-60
2023/12/01 01:23:49;;;;;;;1999.90;999.90;;;;;;;1.48;100.00;92979.19;5010606;28;20223;-59
2023/12/01 01:26:14;;;;;;;1999.90;999.90;;;;;;;1.48;100.00;92973.81;5010736;28;20198;-59
2023/12/01 01:28:40;;;;;;;1999.90;999.90;;;;;;;1.49;100.00;92976.09;5010386;28;20199;-59
2023/12/01 01:31:06;;;;;;;1999.90;999.90;;;;;;;1.48;100.00;92979.97;5010484;28;20258;-59
2023/12/01 01:33:31;;;;;;;1999.90;999.90;;;;;;;1.50;100.00;92987.63;5026872;28;20291;-59
2023/12/01 01:35:57;;;;;;;1999.90;999.90;;;;;;;1.50;100.00;92983.00;5010808;28;20202;-59
2023/12/01 01:38:22;;;;;;;1999.90;999.90;;;;;;;1.49;100.00;92984.16;5010590;28;20194;-59
2023/12/01 01:40:47;;;;;;;1999.90;999.90;;;;;;;1.51;100.00;92989.13;5010252;28;20203;-59
2023/12/01 01:43:22;;;;;;;1999.90;999.90;;;;;;;1.50;100.00;92980.31;5010928;28;20228;-60
2023/12/01 01:46:11;;;;;;;1999.90;999.90;;;;;;;1.48;100.00;92989.94;5010291;28;20199;-59
2023/12/01 01:48:37;;;;;;;1999.90;999.90;;;;;;;1.49;100.00;92984.16;5010486;28;20191;-59
2023/12/01 01:51:03;;;;;;;1999.90;999.90;;;;;;;1.47;100.00;92986.50;5010067;28;20191;-58
2023/12/01 01:53:29;;;;;;;1999.90;999.90;;;;;;;1.54;100.00;92983.72;5009783;28;20193;-58
2023/12/01 01:55:58;;;;;;;1999.90;999.90;;;;;;;1.46;100.00;92976.91;5010515;28;20191;-59
2023/12/01 01:58:25;;;;;;;1999.90;999.90;;;;;;;1.45;100.00;92975.38;5008920;28;20188;-59
2023/12/01 02:00:50;;;;;;;1999.90;999.90;;;;;;;1.46;100.00;92981.53;5010351;28;20207;-58
2023/12/01 02:03:21;;;;;;;1999.90;999.90;;;;;;;1.47;100.00;92966.91;5010027;28;20230;-58
2023/12/01 02:05:47;;;;;;;1999.90;999.90;;;;;;;1.48;100.00;92974.59;5026599;28;20203;-59
2023/12/01 02:08:29;;;;;;;1999.90;999.90;;;;;;;1.47;100.00;92970.38;5010083;28;20199;-59
2023/12/01 02:10:56;;;;;;;1999.90;999.90;;;;;;;1.48;100.00;92963.81;5010043;28;20195;-59
2023/12/01 02:13:23;;;;;;;1999.90;999.90;;;;;;;1.46;100.00;92966.16;5009667;28;20204;-59
2023/12/01 02:15:49;;;;;;;1999.90;999.90;;;;;;;1.43;100.00;92950.84;5010332;28;20205;-58
2023/12/01 02:18:19;;;;;;;1999.90;999.90;;;;;;;1.43;100.00;92950.84;5009369;28;20263;-59
2023/12/01 02:20:44;;;;;;;1999.90;999.90;;;;;;;1.46;100.00;92946.59;5009588;28;20211;-59
2023/12/01 02:23:10;;;;;;;1999.90;999.90;;;;;;;1.41;100.00;92958.53;5009608;28;20217;-60
2023/12/01 02:25:35;;;;;;;1999.90;999.90;;;;;;;1.43;100.00;92972.34;5009634;28;20187;-59
2023/12/01 02:28:01;;;;;;;1999.90;999.90;;;;;;;1.45;100.00;92972.69;5009627;28;20199;-60
2023/12/01 02:30:27;;;;;;;1999.90;999.90;;;;;;;1.43;100.00;92971.59;5009285;28;20175;-60
2023/12/01 02:32:52;;;;;;;1999.90;999.90;;;;;;;1.42;100.00;92981.56;5009604;28;20198;-59
2023/12/01 02:35:17;;;;;;;1999.90;999.90;;;;;;;1.45;100.00;92985.41;5009749;28;20194;-59
2023/12/01 02:37:43;;;;;;;1999.90;999.90;;;;;;;1.48;100.00;92996.09;5009388;28;20195;-60
2023/12/01 02:40:15;;;;;;;1999.90;999.90;;;;;;;1.49;100.00;92981.47;5009153;28;20199;-60
2023/12/01 02:42:48;;;;;;;1999.90;999.90;;;;;;;1.51;100.00;93000.66;5009390;28;20195;-60
2023/12/01 02:45:14;;;;;;;1999.90;999.90;;;;;;;1.53;100.00;93005.63;5009089;28;20210;-60
2023/12/01 02:47:39;;;;;;;1999.90;999.90;;;;;;;1.54;100.00;92996.41;5009148;28;20382;-59
2023/12/01 02:50:09;;;;;;;1999.90;999.90;;;;;;;1.52;100.00;93007.56;5009102;28;20195;-59
2023/12/01 02:52:35;;;;;;;1999.90;999.90;;;;;;;1.54;100.00;93010.63;5025441;28;20210;-59
2023/12/01 02:55:00;;;;;;;1999.90;999.90;;;;;;;1.54;100.00;93005.22;5009058;28;20195;-61
2023/12/01 02:57:25;;;;;;;1999.90;999.90;;;;;;;1.54;100.00;93010.63;5008558;28;20179;-60
2023/12/01 02:59:51;;;;;;;1999.90;999.90;;;;;;;1.56;100.00;93002.16;5009308;28;20278;-60
2023/12/01 03:02:16;;;;;;;1999.90;999.90;;;;;;;1.55;100.00;93012.13;5009166;28;20204;-59
2023/12/01 03:04:41;;;;;;;1999.90;999.90;;;;;;;1.56;100.00;93002.88;5009011;28;20203;-59
2023/12/01 03:07:07;;;;;;;1999.90;999.90;;;;;;;1.57;100.00;93014.41;5008531;28;20419;-59
2023/12/01 03:09:32;;;;;;;1999.90;999.90;;;;;;;1.56;100.00;93013.63;5008230;28;20199;-60
2023/12/01 03:11:57;;;;;;;1999.90;999.90;;;;;;;1.57;100.00;93014.41;5008656;28;20214;-59
2023/12/01 03:14:23;;;;;;;1999.90;999.90;;;;;;;1.57;100.00;93003.66;5008526;28;20210;-59
2023/12/01 03:16:48;;;;;;;1999.90;999.90;;;;;;;1.58;100.00;92994.41;5008745;28;20202;-58
2023/12/01 03:19:14;;;;;;;1999.90;999.90;;;;;;;1.59;100.00;92999.38;5008221;28;20211;-59
2023/12/01 03:21:39;;;;;;;1999.90;999.90;;;;;;;1.59;100.00;93002.09;5008823;28;20218;-59
2023/12/01 03:24:09;;;;;;;1999.90;999.90;;;;;;;1.61;100.00;93010.53;5008433;28;20195;-59
2023/12/01 03:26:35;;;;;;;1999.90;999.90;;;;;;;1.62;100.00;93001.28;5008693;28;20195;-60
2023/12/01 03:29:00;;;;;;;1999.90;999.90;;;;;;;1.64;100.00;92998.94;5008187;28;20183;-60
2023/12/01 03:31:25;;;;;;;1999.90;999.90;;;;;;;1.66;100.00;92995.84;5008561;28;20203;-59
2023/12/01 03:33:51;;;;;;;1999.90;999.90;;;;;;;1.66;100.00;92996.59;5008675;28;20200;-60
2023/12/01 03:36:16;;;;;;;1999.90;999.90;;;;;;;1.68;100.00;92998.91;5008396;28;20199;-59
2023/12/01 03:38:41;;;;;;;1999.90;999.90;;;;;;;1.69;100.00;93006.56;5008438;28;20221;-59
2023/12/01 03:41:07;;;;;;;1999.90;999.90;;;;;;;1.69;100.00;93011.94;5008139;28;20203;-59
2023/12/01 03:43:33;;;;;;;1999.90;999.90;;;;;;;1.69;100.00;93014.63;5007904;28;20201;-59
2023/12/01 03:45:58;;;;;;;1999.90;999.90;;;;;;;1.68;100.00;92975.44;5008178;28;20203;-59
2023/12/01 03:48:24;;;;;;;1999.90;999.90;;;;;;;1.71;100.00;92988.06;5007793;28;20237;-59
2023/12/01 03:50:50;;;;;;;1999.90;999.90;;;;;;;1.71;100.00;92966.56;5008052;28;20199;-60
2023/12/01 03:53:15;;;;;;;1999.90;999.90;;;;;;;1.72;100.00;92951.97;5008081;28;20203;-59
2023/12/01 03:55:41;;;;;;;1999.90;999.90;;;;;;;1.75;100.00;92961.16;5007863;28;20192;-59
2023/12/01 03:58:07;;;;;;;1999.90;999.90;;;;;;;1.75;100.00;92966.53;5007693;28;20266;-61
2023/12/01 04:00:32;;;;;;;1999.90;999.90;;;;;;;1.73;100.00;92961.53;5008099;28;20203;-59
2023/12/01 04:02:58;;;;;;;1999.90;999.90;;;;;;;1.74;100.00;92964.97;5007802;28;20191;-59
2023/12/01 04:05:26;;;;;;;1999.90;999.90;;;;;;;1.73;100.00;92956.16;5008045;28;20203;-59
2023/12/01 04:07:52;;;;;;;1999.90;999.90;;;;;;;1.72;100.00;92956.56;5007918;28;20194;-59
2023/12/01 04:10:18;;;;;;;1999.90;999.90;;;;;;;1.72;100.00;92960.03;5007999;28;20262;-58
2023/12/01 04:12:44;;;;;;;1999.90;999.90;;;;;;;1.72;100.00;92962.72;5007690;28;20262;-59
2023/12/01 04:15:12;;;;;;;1999.90;999.90;;;;;;;1.74;100.00;92965.75;5007617;28;20191;-59
2023/12/01 04:17:45;;;;;;;1999.90;999.90;;;;;;;1.75;100.00;92966.53;5007622;28;20266;-59
2023/12/01 04:20:21;;;;;;;1999.90;999.90;;;;;;;1.71;100.00;92977.31;5023604;28;20246;-61
2023/12/01 04:23:00;;;;;;;1999.90;999.90;;;;;;;1.67;100.00;92965.84;5007452;28;20203;-59
2023/12/01 04:25:26;;;;;;;1999.90;999.90;;;;;;;1.66;100.00;92964.34;5008094;28;20261;-59
2023/12/01 04:27:52;;;;;;;1999.90;999.90;;;;;;;1.67;100.00;92968.53;5007985;28;20187;-59
2023/12/01 04:30:20;;;;;;;1999.90;999.90;;;;;;;1.69;100.00;92971.59;5007443;28;20226;-59
2023/12/01 04:32:52;;;;;;;1999.90;999.90;;;;;;;1.70;100.00;92973.13;5007313;28;20230;-59
2023/12/01 04:35:18;;;;;;;1999.90;999.90;;;;;;;1.73;100.00;92969.63;5007619;28;20197;-59
2023/12/01 04:37:43;;;;;;;1999.90;999.90;;;;;;;1.74;100.00;92981.13;5007455;28;20210;-59
2023/12/01 04:40:14;;;;;;;1999.90;999.90;;;;;;;1.76;100.00;92973.41;5007252;28;20207;-59
2023/12/01 04:42:41;;;;;;;1999.90;999.90;;;;;;;1.76;100.00;92968.81;5007496;28;20195;-59
2023/12/01 04:45:11;;;;;;;1999.90;999.90;;;;;;;1.78;100.00;92976.47;5007439;28;20195;-59
2023/12/01 04:47:37;;;;;;;1999.90;999.90;;;;;;;1.76;100.00;92978.78;5007290;28;20269;-59
2023/12/01 04:50:03;;;;;;;1999.90;999.90;;;;;;;1.75;100.00;92967.25;5007089;28;20171;-59
2023/12/01 04:52:28;;;;;;;1999.90;999.90;;;;;;;1.73;100.00;92969.63;5007239;28;20191;-59
2023/12/01 04:54:53;;;;;;;1999.90;999.90;;;;;;;1.69;100.00;92974.28;5007658;28;20191;-60
2023/12/01 04:57:19;;;;;;;1999.90;999.90;;;;;;;1.69;100.00;92968.13;5007156;28;20195;-59
2023/12/01 04:59:44;;;;;;;1999.90;999.90;;;;;;;1.70;100.00;92969.66;5007558;28;20207;-58
2023/12/01 05:02:09;;;;;;;1999.90;999.90;;;;;;;1.64;100.00;92982.78;5007546;28;20199;-59
2023/12/01 05:04:35;;;;;;;1999.90;999.90;;;;;;;1.71;100.00;92993.44;5007204;28;20215;-59
2023/12/01 05:07:01;;;;;;;1999.90;999.90;;;;;;;1.70;100.00;92983.88;5007173;28;20256;-59
2023/12/01 05:09:27;;;;;;;1999.90;999.90;;;;;;;1.72;100.00;92989.63;5006981;28;20255;-59
2023/12/01 05:11:52;;;;;;;1999.90;999.90;;;;;;;1.76;100.00;92984.16;5007284;28;20203;-60
2023/12/01 05:14:17;;;;;;;1999.90;999.90;;;;;;;1.75;100.00;92988.78;5007683;28;20245;-59
2023/12/01 05:16:43;;;;;;;1999.90;999.90;;;;;;;1.76;100.00;92986.88;5007778;28;20207;-58
2023/12/01 05:19:08;;;;;;;1999.90;999.90;;;;;;;1.76;100.00;92984.94;5007417;28;20222;-59
2023/12/01 05:21:33;;;;;;;1999.90;999.90;;;;;;;1.76;100.00;92976.88;5007441;28;20183;-59
2023/12/01 05:23:59;;;;;;;1999.90;999.90;;;;;;;1.76;100.00;92973.41;5007120;28;20199;-59
2023/12/01 05:26:24;;;;;;;1999.90;999.90;;;;;;;1.75;100.00;92978.03;5006862;28;20229;-59
2023/12/01 05:28:49;;;;;;;1999.90;999.90;;;;;;;1.72;100.00;92962.72;5007038;28;20234;-59
2023/12/01 05:31:16;;;;;;;1999.90;999.90;;;;;;;1.72;100.00;92968.09;5006957;28;20230;-60
2023/12/01 05:33:42;;;;;;;1999.90;999.90;;;;;;;1.72;100.00;92973.47;5010067;28;20198;-59
2023/12/01 05:36:08;;;;;;;1999.90;999.90;;;;;;;1.73;100.00;92974.22;5010770;28;20328;-58
2023/12/01 05:38:34;;;;;;;1999.90;999.90;;;;;;;1.73;100.00;92974.22;5010182;28;20203;-58
2023/12/01 05:41:00;;;;;;;1999.90;999.90;;;;;;;1.72;100.00;92983.47;5010199;28;20207;-58
2023/12/01 05:43:25;;;;;;;1999.90;999.90;;;;;;;1.71;100.00;92996.16;5010187;28;20199;-59
2023/12/01 05:45:50;;;;;;;1999.90;999.90;;;;;;;1.66;100.00;92996.59;5010559;28;20199;-59
2023/12/01 05:48:16;;;;;;;1999.90;999.90;;;;;;;1.64;100.00;92993.56;5010301;28;20202;-59
2023/12/01 05:50:42;;;;;;;1999.90;999.90;;;;;;;1.64;100.00;92998.94;5009894;28;20199;-60
2023/12/01 05:53:10;;;;;;;1999.90;999.90;;;;;;;1.62;100.00;93001.28;5010461;28;20195;-59
2023/12/01 05:55:36;;;;;;;1999.90;999.90;;;;;;;1.60;100.00;93008.97;5010029;28;20210;-60
2023/12/01 05:58:13;;;;;;;1999.90;999.90;;;;;;;1.61;100.00;93010.53;5010050;28;20270;-59
2023/12/01 06:00:39;;;;;;;1999.90;999.90;;;;;;;1.52;100.00;92996.81;5010091;28;20225;-59
2023/12/01 06:03:06;;;;;;;1999.90;999.90;;;;;;;1.49;100.00;93002.22;5010004;28;20227;-60
2023/12/01 06:05:33;;;;;;;1999.90;999.90;;;;;;;1.44;100.00;93006.13;5009784;28;20308;-59
2023/12/01 06:07:59;;;;;;;1999.90;999.90;;;;;;;1.44;100.00;93011.50;5009714;28;20199;-59
2023/12/01 06:10:28;;;;;;;1999.90;999.90;;;;;;;1.46;100.00;93019.91;5009630;28;20203;-59
2023/12/01 06:12:53;;;;;;;1999.90;999.90;;;;;;;1.44;100.00;93022.25;5009745;28;20203;-56
2023/12/01 06:15:19;;;;;;;1999.90;999.90;;;;;;;1.41;100.00;93023.06;5009799;28;20202;-59
2023/12/01 06:17:52;;;;;;;1999.90;999.90;;;;;;;1.41;100.00;93028.44;5010058;28;20251;-59
2023/12/01 06:20:19;;;;;;;1999.90;999.90;;;;;;;1.39;100.00;93025.41;5009837;28;20219;-59
2023/12/01 06:22:50;;;;;;;1999.90;999.90;;;;;;;1.35;100.00;93018.53;5026390;28;20210;-59
2023/12/01 06:25:18;;;;;;;1999.90;999.90;;;;;;;1.34;100.00;93015.09;5009195;28;20203;-59
2023/12/01 06:27:44;;;;;;;1999.90;999.90;;;;;;;1.28;100.00;93024.78;5009651;28;20205;-59
2023/12/01 06:30:13;;;;;;;1999.90;999.90;;;;;;;1.28;100.00;93019.41;5009662;28;20211;-59
2023/12/01 06:32:40;;;;;;;1999.90;999.90;;;;;;;1.28;100.00;93024.78;5009394;28;20321;-58
2023/12/01 06:35:11;;;;;;;1999.90;999.90;;;;;;;1.25;100.00;93025.56;5008864;28;20203;-57
2023/12/01 06:37:36;;;;;;;1999.90;999.90;;;;;;;1.18;100.00;93028.34;5009170;28;20199;-58
2023/12/01 06:40:11;;;;;;;1999.90;999.90;;;;;;;1.19;100.00;93021.78;5025282;28;20229;-59
2023/12/01 06:42:40;;;;;;;1999.90;999.90;;;;;;;1.17;100.00;92993.81;5009361;28;20194;-61
2023/12/01 06:45:07;;;;;;;1999.90;999.90;;;;;;;1.09;100.00;93001.19;5024889;28;20431;-59
2023/12/01 06:47:32;;;;;;;1999.90;999.90;;;;;;;1.05;100.00;93000.47;5009106;28;20213;-59
2023/12/01 06:49:58;;;;;;;1999.90;999.90;;;;;;;1.09;100.00;93001.19;5009028;28;20206;-58
2023/12/01 06:52:23;;;;;;;1999.90;999.90;;;;;;;1.08;100.00;92999.66;5008911;28;20271;-58
2023/12/01 06:54:48;;;;;;;1999.90;999.90;;;;;;;1.11;100.00;93004.25;5009024;28;20210;-59
2023/12/01 06:57:14;;;;;;;1999.90;999.90;;;;;;;1.09;100.00;93011.19;5008837;28;20358;-59
2023/12/01 06:59:39;;;;;;;1999.90;999.90;;;;;;;1.06;100.00;93018.09;5008400;28;20387;-59
2023/12/01 07:02:04;;;;;;;1999.90;999.90;;;;;;;1.07;100.00;93018.88;5008849;28;20206;-59
2023/12/01 07:04:32;;;;;;;1999.90;999.90;;;;;;;1.12;100.00;93015.72;5008630;28;20226;-58
2023/12/01 07:07:00;;;;;;;1999.90;999.90;;;;;;;1.11;100.00;93025.72;5008606;28;20215;-59
2023/12/01 07:09:26;;;;;;;1999.90;999.90;;;;;;;1.12;100.00;93027.25;5008381;28;20234;-61
2023/12/01 07:11:53;;;;;;;1999.90;999.90;;;;;;;1.13;100.00;93025.34;5008909;28;20180;-59
2023/12/01 07:14:19;;;;;;;1999.90;999.90;;;;;;;1.14;100.00;93024.94;5008594;28;20199;-59
2023/12/01 07:16:44;;;;;;;1999.90;999.90;;;;;;;1.16;100.00;93032.59;5009129;28;20205;-59
2023/12/01 07:19:10;;;;;;;1999.90;999.90;;;;;;;1.18;100.00;93031.03;5008577;28;20306;-58
2023/12/01 07:21:35;;;;;;;1999.90;999.90;;;;;;;1.17;100.00;93029.47;5008091;28;20202;-59
2023/12/01 07:24:06;;;;;;;1999.90;999.90;;;;;;;1.18;100.00;93049.84;5008655;28;20210;-59
2023/12/01 07:26:33;;;;;;;1999.90;999.90;;;;;;;1.19;100.00;93059.41;5008657;28;20203;-58
2023/12/01 07:29:00;;;;;;;1999.90;999.90;;;;;;;1.21;100.00;93050.97;5008168;28;20282;-59
2023/12/01 07:31:26;;;;;;;1999.90;999.90;;;;;;;1.23;100.00;93048.63;5008135;28;20203;-59
2023/12/01 07:33:51;;;;;;;1999.90;999.90;;;;;;;1.23;100.00;93054.75;5008247;28;20282;-59
2023/12/01 07:36:17;;;;;;;1999.90;999.90;;;;;;;1.25;100.00;93052.44;5008179;28;20199;-59
2023/12/01 07:38:42;;;;;;;1999.90;999.90;;;;;;;1.27;100.00;93039.34;5007836;28;20214;-58
2023/12/01 07:41:07;;;;;;;1999.90;999.90;;;;;;;1.29;100.00;93050.47;5008240;28;20179;-58
2023/12/01 07:43:33;;;;;;;1999.90;999.90;;;;;;;1.35;100.00;93046.16;5008275;28;20199;-59
2023/12/01 07:45:59;;;;;;;1999.90;999.90;;;;;;;1.39;100.00;93038.84;5007863;28;20261;-58
2023/12/01 07:48:24;;;;;;;1999.90;999.90;;;;;;;1.40;100.00;93043.03;5008148;28;20199;-59
2023/12/01 07:50:49;;;;;;;1999.90;999.90;;;;;;;1.38;100.00;93045.38;5008286;28;20191;-59
2023/12/01 07:53:16;;;;;;;1999.90;999.90;;;;;;;1.36;100.00;93055.78;5007726;28;20195;-59
2023/12/01 07:55:42;;;;;;;1999.90;999.90;;;;;;;1.37;100.00;93056.50;5007014;28;20187;-58
2023/12/01 07:58:07;;;;;;;1999.90;999.90;;;;;;;1.47;100.00;93045.66;5007871;28;20195;-58
2023/12/01 08:00:32;;;;;;;1999.90;999.90;;;;;;;1.56;100.00;93059.34;5008121;28;20301;-58
2023/12/01 08:02:58;;;;;;;1999.90;999.90;;;;;;;1.56;100.00;93056.66;5008060;28;20221;-59
2023/12/01 08:05:24;;;;;;;1999.90;999.90;;;;;;;1.57;100.00;93044.72;5007753;28;20267;-59
2023/12/01 08:07:53;;;;;;;1999.90;999.90;;;;;;;1.57;100.00;93058.19;5007692;28;20202;-59
2023/12/01 08:10:20;;;;;;;1999.90;999.90;;;;;;;1.57;100.00;93060.13;5007659;28;20179;-58
2023/12/01 08:12:47;;;;;;;1999.90;999.90;;;;;;;1.56;100.00;93053.22;5007750;28;20198;-59
2023/12/01 08:15:13;;;;;;;1999.90;999.90;;;;;;;1.66;100.00;93063.84;5007925;28;20253;-58
2023/12/01 08:17:39;;;;;;;1999.90;999.90;;;;;;;1.75;100.00;93068.72;5007869;28;20214;-59
2023/12/01 08:20:08;;;;;;;1999.90;999.90;;;;;;;1.74;100.00;93062.56;5007504;28;20214;-58
2023/12/01 08:22:35;;;;;;;1999.90;999.90;;;;;;;1.71;100.00;93068.75;5007465;28;20217;-57
2023/12/01 08:25:00;;;;;;;1999.90;999.90;;;;;;;1.67;100.00;93073.41;5007490;28;20194;-59
2023/12/01 08:27:26;;;;;;;1999.90;999.90;;;;;;;1.70;100.00;93074.53;5007451;28;20495;-59
2023/12/01 08:29:52;;;;;;;1999.90;999.90;;;;;;;1.75;100.00;93085.59;5007467;28;20191;-59
2023/12/01 08:32:18;;;;;;;1999.90;999.90;;;;;;;1.74;100.00;93073.34;5007714;28;20499;-59
2023/12/01 08:34:43;;;;;;;1999.90;999.90;;;;;;;1.81;100.00;93067.88;5007701;28;20191;-59
2023/12/01 08:37:08;;;;;;;1999.90;999.90;;;;;;;1.83;100.00;93072.84;5007833;28;20202;-60
2023/12/01 08:39:34;;;;;;;1999.90;999.90;;;;;;;1.87;100.00;93070.88;5007234;28;20195;-59
2023/12/01 08:41:59;;;;;;;1999.90;999.90;;;;;;;1.90;100.00;93070.06;5007296;28;20222;-59
2023/12/01 08:44:25;;;;;;;1999.90;999.90;;;;;;;1.85;100.00;93084.72;5007977;28;20191;-59
2023/12/01 08:46:50;;;;;;;1999.90;999.90;;;;;;;1.89;100.00;93088.13;5007165;28;20234;-59
2023/12/01 08:49:15;;;;;;;1999.90;999.90;;;;;;;1.85;100.00;93083.94;5007313;28;20187;-60
2023/12/01 08:51:41;;;;;;;1999.90;999.90;;;;;;;1.84;100.00;93066.28;5007510;28;20202;-59
2023/12/01 08:54:06;;;;;;;1999.90;999.90;;;;;;;1.81;100.00;93070.56;5007286;28;20194;-59
2023/12/01 08:56:33;;;;;;;1999.90;999.90;;;;;;;1.83;100.00;93083.59;5007295;28;20206;-59
2023/12/01 08:58:59;;;;;;;1999.90;999.90;;;;;;;1.75;100.00;93090.25;5007203;28;20187;-59
2023/12/01 09:01:24;;;;;;;1999.90;999.90;;;;;;;1.79;100.00;93094.38;5007354;28;20237;-59
2023/12/01 09:03:49;;;;;;;1999.90;999.90;;;;;;;1.80;100.00;93092.47;5007044;28;20206;-59
2023/12/01 09:06:15;;;;;;;1999.90;999.90;;;;;;;1.85;100.00;93100.84;5007042;28;20203;-59
2023/12/01 09:08:40;;;;;;;1999.90;999.90;;;;;;;1.87;100.00;93103.16;5010689;28;20191;-59
2023/12/01 09:11:06;;;;;;;1999.90;999.90;;;;;;;1.93;100.00;93106.91;5011245;28;20187;-59
2023/12/01 09:13:34;;;;;;;1999.90;999.90;;;;;;;1.98;100.00;93104.53;5027707;28;20198;-58
2023/12/01 09:16:00;;;;;;;1999.90;999.90;;;;;;;1.98;100.00;93103.75;5010943;28;20261;-59
2023/12/01 09:18:25;;;;;;;1999.90;999.90;;;;;;;2.04;100.00;93108.28;5010715;28;20202;-59
2023/12/01 09:20:51;;;;;;;1999.90;999.90;;;;;;;1.99;100.00;93106.06;5010532;28;20442;-59
2023/12/01 09:23:16;;;;;;;1999.90;999.90;;;;;;;2.00;100.00;93112.22;5010525;28;20199;-59
2023/12/01 09:25:41;;;;;;;1999.90;999.90;;;;;;;2.06;100.00;93122.09;5010590;28;20191;-58
2023/12/01 09:28:07;;;;;;;1999.90;999.90;;;;;;;2.04;100.00;93123.69;5010490;28;20195;-57
2023/12/01 09:30:32;;;;;;;1999.90;999.90;;;;;;;2.01;100.00;93117.16;5010670;28;20202;-57
2023/12/01 09:32:58;;;;;;;1999.90;999.90;;;;;;;2.03;100.00;93112.16;5010881;28;20223;-58
2023/12/01 09:35:25;;;;;;;1999.90;999.90;;;;;;;1.95;100.00;93115.34;5010563;28;20198;-58
2023/12/01 09:37:51;;;;;;;1999.90;999.90;;;;;;;2.07;100.00;93118.25;5010381;28;20202;-58
2023/12/01 09:40:17;;;;;;;1999.90;999.90;;;;;;;2.16;100.00;93131.97;5009859;28;20274;-59
2023/12/01 09:42:43;;;;;;;1999.90;999.90;;;;;;;2.12;100.00;93115.09;5026593;28;20171;-59
2023/12/01 09:45:09;;;;;;;1999.90;999.90;;;;;;;2.12;100.00;93107.00;5010736;28;20262;-58
2023/12/01 09:47:42;;;;;;;1999.90;999.90;;;;;;;2.11;100.00;93092.03;5010129;28;20257;-58
2023/12/01 09:50:13;;;;;;;1999.90;999.90;;;;;;;2.16;100.00;93099.69;5010480;28;20195;-58
2023/12/01 09:52:40;;;;;;;1999.90;999.90;;;;;;;2.17;100.00;93103.88;5010476;28;20187;-58
2023/12/01 09:55:06;;;;;;;1999.90;999.90;;;;;;;2.11;100.00;93088.59;5009980;28;20191;-58
2023/12/01 09:57:31;;;;;;;1999.90;999.90;;;;;;;2.12;100.00;93095.50;5010094;28;20266;-58
2023/12/01 09:59:57;;;;;;;1999.90;999.90;;;;;;;2.14;100.00;93085.84;5010061;28;20208;-58
2023/12/01 10:02:23;;;;;;;1999.90;999.90;;;;;;;2.10;100.00;93090.53;5009872;28;20210;-58
2023/12/01 10:04:58;;;;;;;1999.90;999.90;;;;;;;2.11;100.00;93078.59;5010652;28;20249;-58
2023/12/01 10:07:24;;;;;;;1999.90;999.90;;;;;;;2.13;100.00;93089.72;5010284;28;20173;-58
2023/12/01 10:09:49;;;;;;;1999.90;999.90;;;;;;;2.06;100.00;93076.34;5009719;28;20191;-58
2023/12/01 10:12:14;;;;;;;1999.90;999.90;;;;;;;2.09;100.00;93072.09;5009723;28;20214;-58
2023/12/01 10:14:42;;;;;;;1999.90;999.90;;;;;;;2.07;100.00;93077.88;5009755;28;20191;-58
2023/12/01 10:17:12;;;;;;;1999.90;999.90;;;;;;;2.17;100.00;93076.97;5025896;28;20191;-58
2023/12/01 10:19:47;;;;;;;1999.90;999.90;;;;;;;2.14;100.00;93080.47;5008777;28;20199;-57
2023/12/01 10:22:13;;;;;;;1999.90;999.90;;;;;;;2.06;100.00;93084.44;5009713;28;20195;-57
2023/12/01 10:24:38;;;;;;;1999.90;999.90;;;;;;;2.09;100.00;93082.84;5009613;28;20188;-58
2023/12/01 10:27:08;;;;;;;1999.90;999.90;;;;;;;2.00;100.00;93086.03;5009824;28;20214;-58
2023/12/01 10:29:35;;;;;;;1999.90;999.90;;;;;;;2.01;100.00;93087.56;5009928;28;20191;-58
2023/12/01 10:32:11;;;;;;;1999.90;999.90;;;;;;;2.00;100.00;93088.72;5009526;28;20191;-59
2023/12/01 10:34:37;;;;;;;1999.90;999.90;;;;;;;2.08;100.00;93084.03;5009686;28;20190;-58
2023/12/01 10:37:03;;;;;;;1999.90;999.90;;;;;;;2.13;100.00;93087.03;5009833;28;20210;-58
2023/12/01 10:39:29;;;;;;;1999.90;999.90;;;;;;;2.17;100.00;93076.97;5009276;28;20214;-59
2023/12/01 10:41:55;;;;;;;1999.90;999.90;;;;;;;2.13;100.00;93078.19;5008895;28;20187;-58
2023/12/01 10:44:24;;;;;;;1999.90;999.90;;;;;;;2.19;100.00;93093.44;5009101;28;20191;-59
2023/12/01 10:46:50;;;;;;;1999.90;999.90;;;;;;;2.23;100.00;93094.16;5008926;28;20193;-58
2023/12/01 10:49:17;;;;;;;1999.90;999.90;;;;;;;2.27;100.00;93100.28;5009384;28;20191;-59
2023/12/01 10:51:43;;;;;;;1999.90;999.90;;;;;;;2.29;100.00;93092.53;5008750;28;20191;-58